»·PEaware :: AAL649 KPHX-KSBA

AAL649 :: KPHX-KSBA

FLIGHT INFORMATION

Flight Status: Arrived
Operator:
American Airlines
More flights by this operator :: More flights under this callsign
Pilot: Drew L. (13237)
Aircraft: AIRBUS A319
(A319)
More flights by this aircraft type
Origin: KPHX Phoenix Sky Harbor Intl
United States
Destination: KSBA Santa Barbara Mun
United States
More flights between these airports :: More routes between these airports
Route: KEENS2 HRRBR CURIV J212 PSP PORPS PITBL1
File this flight plan on PilotEdge
Remarks: RMK / SIMBRIEF
Altitude:
(Current/Filed)
38,000ft
Speed:
(Current/Filed)
451kts
Departed: 08-Oct-20 08:34 PM
Arrived: 08-Oct-20 09:46 PM
Distance/Time
Traveled:
394nm/1:12
Distance/Time
To Go:
Arrived

Flight Plot

Page will automatically refresh every two minutes.

Flight plan parsing failed; only flown route is shown


Map Options




Map Legend


Flown Route
Filed Route
Departure Airport
Arrival Airport
Navaid (VOR, NDB)
Fix

Horizontal Profiles

Position Reports

Time Latitude Longitude Heading Altitude Ground
Speed
08-Oct-20 20:12 33.437981 -112.002437 115 1131ft 0kts
08-Oct-20 20:13 33.437981 -112.002437 115 1131ft 0kts
08-Oct-20 20:14 33.437981 -112.002437 115 1131ft 0kts
08-Oct-20 20:15 33.437981 -112.002437 115 1131ft 0kts
08-Oct-20 20:16 33.437981 -112.002437 115 1131ft 0kts
08-Oct-20 20:17 33.437981 -112.002437 115 1131ft 0kts
08-Oct-20 20:18 33.437981 -112.002437 115 1130ft 0kts
08-Oct-20 20:20 33.437981 -112.002437 115 1130ft 0kts
08-Oct-20 20:21 33.437981 -112.002437 115 1130ft 0kts
08-Oct-20 20:22 33.437981 -112.002437 115 1130ft 0kts
08-Oct-20 20:23 33.437981 -112.002437 115 1130ft 0kts
08-Oct-20 20:24 33.437981 -112.002437 115 1130ft 0kts
08-Oct-20 20:25 33.437981 -112.002437 115 1130ft 0kts
08-Oct-20 20:26 33.437981 -112.002437 115 1130ft 0kts
08-Oct-20 20:27 33.438045 -112.002817 67 1130ft 2kts
08-Oct-20 20:28 33.437734 -112.003031 358 1130ft 0kts
08-Oct-20 20:29 33.437734 -112.003031 358 1130ft 0kts
08-Oct-20 20:30 33.437734 -112.003031 358 1130ft 0kts
08-Oct-20 20:31 33.438885 -112.003148 327 1130ft 11kts
08-Oct-20 20:32 33.439717 -112.000166 89 1133ft 18kts
08-Oct-20 20:33 33.439699 -111.993815 89 1136ft 19kts
08-Oct-20 20:33 33.440820 -111.996019 270 1137ft 81kts
08-Oct-20 20:35 33.431939 -112.059002 250 3982ft 188kts
08-Oct-20 20:35 33.414834 -112.115243 251 5540ft 246kts
08-Oct-20 20:37 33.393351 -112.217654 277 8895ft 288kts
08-Oct-20 20:37 33.405578 -112.298782 279 11040ft 320kts
08-Oct-20 20:39 33.426266 -112.437514 279 12742ft 401kts
08-Oct-20 20:39 33.442548 -112.548048 278 15309ft 411kts
08-Oct-20 20:40 33.451520 -112.686562 269 17999ft 424kts
08-Oct-20 20:41 33.458844 -112.829154 277 20356ft 439kts
08-Oct-20 20:42 33.485282 -112.973884 280 22556ft 449kts
08-Oct-20 20:43 33.512635 -113.120660 280 24491ft 456kts
08-Oct-20 20:44 33.539727 -113.267367 280 26918ft 446kts
08-Oct-20 20:45 33.565982 -113.410624 280 29031ft 438kts
08-Oct-20 20:46 33.591874 -113.552010 280 30916ft 431kts
08-Oct-20 20:47 33.617877 -113.691291 280 32588ft 424kts
08-Oct-20 20:48 33.643233 -113.828503 280 34117ft 419kts
08-Oct-20 20:49 33.668190 -113.964127 280 35394ft 415kts
08-Oct-20 20:50 33.692801 -114.098698 280 36446ft 412kts
08-Oct-20 20:51 33.717242 -114.233179 280 37268ft 412kts
08-Oct-20 20:52 33.741465 -114.367345 280 37789ft 412kts
08-Oct-20 20:53 33.765595 -114.502071 279 37797ft 413kts
08-Oct-20 20:54 33.778571 -114.638341 272 37798ft 411kts
08-Oct-20 20:55 33.786489 -114.775718 272 37798ft 411kts
08-Oct-20 20:56 33.794227 -114.912311 272 37798ft 411kts
08-Oct-20 20:57 33.801882 -115.049900 272 37797ft 412kts
08-Oct-20 20:58 33.809377 -115.187603 272 37797ft 415kts
08-Oct-20 20:59 33.816800 -115.326363 272 37794ft 416kts
08-Oct-20 21:00 33.824068 -115.465460 272 37785ft 416kts
08-Oct-20 21:01 33.831116 -115.604284 272 37780ft 416kts
08-Oct-20 21:02 33.838064 -115.743815 271 37780ft 416kts
08-Oct-20 21:03 33.844841 -115.882865 271 37780ft 416kts
08-Oct-20 21:04 33.851422 -116.020856 271 37786ft 416kts
08-Oct-20 21:05 33.857904 -116.159979 271 37787ft 416kts
08-Oct-20 21:06 33.864255 -116.299524 271 37797ft 416kts
08-Oct-20 21:07 33.875224 -116.438399 279 37821ft 418kts
08-Oct-20 21:08 33.905036 -116.573782 284 37831ft 419kts
08-Oct-20 21:09 33.937819 -116.708865 283 37841ft 419kts
08-Oct-20 21:10 33.970459 -116.844262 283 37906ft 419kts
08-Oct-20 21:11 34.003086 -116.979997 283 37975ft 418kts
08-Oct-20 21:12 34.035604 -117.116028 282 37990ft 419kts
08-Oct-20 21:13 34.067950 -117.252264 282 37991ft 419kts
08-Oct-20 21:14 34.100207 -117.388759 282 37923ft 420kts
08-Oct-20 21:15 34.132141 -117.522637 282 36920ft 409kts
08-Oct-20 21:16 34.163154 -117.654958 282 35929ft 408kts
08-Oct-20 21:17 34.193987 -117.787891 282 34933ft 410kts
08-Oct-20 21:18 34.224703 -117.920756 282 33933ft 412kts
08-Oct-20 21:19 34.255393 -118.054329 282 31942ft 417kts
08-Oct-20 21:20 34.287107 -118.190027 284 29723ft 424kts
08-Oct-20 21:21 34.319553 -118.327786 273 28016ft 426kts
08-Oct-20 21:22 34.318499 -118.471523 268 26106ft 431kts
08-Oct-20 21:23 34.317439 -118.618069 269 24176ft 438kts
08-Oct-20 21:24 34.316565 -118.766275 268 22165ft 437kts
08-Oct-20 21:25 34.315555 -118.912036 269 20007ft 426kts
08-Oct-20 21:26 34.314414 -119.053505 269 17678ft 415kts
08-Oct-20 21:27 34.313183 -119.189366 269 15061ft 382kts
08-Oct-20 21:28 34.311939 -119.311215 269 12461ft 346kts
08-Oct-20 21:29 34.310689 -119.422027 269 10304ft 306kts
08-Oct-20 21:30 34.310129 -119.519159 267 9497ft 282kts
08-Oct-20 21:31 34.302238 -119.612414 265 8186ft 272kts
08-Oct-20 21:32 34.294946 -119.700738 264 6681ft 257kts
08-Oct-20 21:33 34.288186 -119.783171 264 5656ft 240kts
08-Oct-20 21:34 34.281622 -119.862659 264 4866ft 235kts
08-Oct-20 21:35 34.275280 -119.940984 264 4370ft 234kts
08-Oct-20 21:36 34.269055 -120.017002 264 3991ft 211kts
08-Oct-20 21:37 34.284076 -120.080485 330 3998ft 210kts
08-Oct-20 21:38 34.341663 -120.087072 358 3833ft 212kts
08-Oct-20 21:39 34.397479 -120.088092 358 3507ft 188kts
08-Oct-20 21:40 34.424064 -120.045252 88 3105ft 190kts
08-Oct-20 21:41 34.424901 -119.986380 88 2151ft 166kts
08-Oct-20 21:42 34.425854 -119.936163 88 1348ft 138kts
08-Oct-20 21:43 34.426641 -119.890016 88 659ft 136kts
08-Oct-20 21:44 34.427696 -119.845193 88 22ft 105kts
08-Oct-20 21:45 34.426734 -119.835543 272 21ft 12kts
08-Oct-20 21:46 34.425252 -119.837593 114 21ft 8kts

Navigation Log

Ident Type
Flight plan parsing failed, navigation log unavailable